Time;durP1;ratioP1;P1;durP2;ratioP2;P2;SDS_P1;SDS_P2;PMS_P1;PMS_P2;Temp;Humidity;BMP_temperature;BMP_pressure;BME280_temperature;BME280_humidity;BME280_pressure;Samples;Min_cycle;Max_cycle;Signal;HPM_P1;HPM_P2
2020/12/13 00:01:04;;;;;;;7.37;6.77;;;11.10;50.40;;;;;;5017011;28;20262;-91
2020/12/13 00:03:30;;;;;;;7.00;6.40;;;11.10;50.20;;;;;;5016745;28;20272;-91
2020/12/13 00:05:56;;;;;;;7.13;6.43;;;10.80;50.00;;;;;;5016312;28;20229;-92
2020/12/13 00:08:22;;;;;;;7.60;6.93;;;11.20;50.20;;;;;;5015946;28;20717;-90
2020/12/13 00:11:00;;;;;;;7.47;6.88;;;11.30;50.50;;;;;;5016292;28;20549;-91
2020/12/13 00:13:25;;;;;;;7.15;6.55;;;11.00;50.30;;;;;;5015541;28;20167;-91
2020/12/13 00:15:52;;;;;;;6.50;5.97;;;11.00;50.20;;;;;;5015073;28;20284;-91
2020/12/13 00:18:19;;;;;;;7.47;6.78;;;10.80;49.90;;;;;;5016083;28;20175;-92
2020/12/13 00:20:52;;;;;;;6.28;5.68;;;10.90;50.10;;;;;;5015865;28;20251;-91
2020/12/13 00:23:18;;;;;;;6.97;6.43;;;11.10;50.20;;;;;;5016629;28;20619;-92
2020/12/13 00:26:14;;;;;;;6.07;5.53;;;11.00;50.20;;;;;;5016784;28;20203;-95
2020/12/13 00:28:40;;;;;;;6.70;6.10;;;11.10;50.30;;;;;;5016377;28;20626;-93
2020/12/13 00:31:13;;;;;;;6.70;5.40;;;11.40;50.70;;;;;;5016665;28;20176;-93
2020/12/13 00:34:23;;;;;;;5.22;4.72;;;10.60;50.00;;;;;;5021318;28;20176;-93
2020/12/13 00:36:53;;;;;;;6.00;5.40;;;11.20;50.60;;;;;;5016411;28;20229;-90
2020/12/13 00:39:18;;;;;;;8.60;6.65;;;10.60;50.10;;;;;;5015822;28;20623;-90
2020/12/13 00:41:54;;;;;;;6.67;6.07;;;11.10;51.00;;;;;;5015638;28;20182;-90
2020/12/13 00:44:27;;;;;;;5.88;5.47;;;10.40;50.40;;;;;;5015569;28;20223;-90
2020/12/13 00:46:53;;;;;;;10.40;6.75;;;10.90;50.70;;;;;;5015739;28;20199;-90
2020/12/13 00:49:19;;;;;;;7.18;6.28;;;11.00;50.70;;;;;;5015832;28;20250;-90
2020/12/13 00:51:45;;;;;;;6.93;6.23;;;11.00;50.60;;;;;;5015510;28;20176;-90
2020/12/13 00:54:10;;;;;;;6.43;5.83;;;10.50;50.10;;;;;;5016049;28;20207;-90
2020/12/13 00:56:46;;;;;;;6.40;5.90;;;11.00;50.30;;;;;;5015581;28;20408;-90
2020/12/13 00:59:11;;;;;;;9.32;7.78;;;11.00;50.30;;;;;;5015579;28;20171;-90
2020/12/13 01:01:37;;;;;;;8.43;7.73;;;11.00;50.30;;;;;;5015413;28;20222;-89
2020/12/13 01:04:16;;;;;;;8.97;8.10;;;11.00;50.30;;;;;;5015195;28;20179;-90
2020/12/13 01:06:41;;;;;;;8.00;7.20;;;11.10;50.30;;;;;;5015361;28;20670;-90
2020/12/13 01:09:11;;;;;;;8.30;7.50;;;10.90;50.20;;;;;;5015407;28;20238;-90
2020/12/13 01:11:37;;;;;;;6.50;5.95;;;11.00;50.30;;;;;;5015435;28;20182;-90
2020/12/13 01:14:05;;;;;;;7.87;7.17;;;10.90;50.50;;;;;;5016204;28;20290;-90
2020/12/13 01:16:31;;;;;;;7.38;6.75;;;11.10;50.70;;;;;;5015431;28;20171;-90
2020/12/13 01:19:00;;;;;;;7.45;6.72;;;10.90;50.50;;;;;;5015560;28;20195;-90
2020/12/13 01:21:44;;;;;;;8.20;6.57;;;11.10;50.60;;;;;;5015490;28;20171;-90
2020/12/13 01:24:10;;;;;;;7.40;6.20;;;11.00;50.70;;;;;;5015550;28;20179;-90
2020/12/13 01:26:35;;;;;;;7.07;6.37;;;11.00;50.60;;;;;;5014793;28;20180;-90
2020/12/13 01:29:05;;;;;;;8.70;7.50;;;11.00;50.70;;;;;;5014930;28;20176;-90
2020/12/13 01:31:31;;;;;;;9.13;7.22;;;11.00;50.70;;;;;;5015092;28;20648;-90
2020/12/13 01:33:56;;;;;;;8.53;7.73;;;11.00;50.80;;;;;;5015302;28;20274;-90
2020/12/13 01:36:24;;;;;;;7.07;6.40;;;11.30;50.80;;;;;;5015557;28;20179;-90
2020/12/13 01:38:50;;;;;;;7.88;7.18;;;11.10;50.70;;;;;;5015248;28;20172;-90
2020/12/13 01:41:17;;;;;;;7.07;6.38;;;11.00;51.10;;;;;;5015615;28;20167;-90
2020/12/13 01:44:00;;;;;;;6.60;5.95;;;10.90;51.00;;;;;;5015054;28;20216;-90
2020/12/13 01:46:27;;;;;;;7.03;6.32;;;11.00;51.20;;;;;;5014343;28;20175;-90
2020/12/13 01:49:01;;;;;;;6.60;6.00;;;10.80;51.20;;;;;;5014609;28;20183;-90
2020/12/13 01:54:07;;;;;;;7.90;7.20;;;10.80;51.10;;;;;;5015677;28;20246;-89
2020/12/13 01:56:34;;;;;;;6.30;5.70;;;10.90;51.20;;;;;;5014453;28;20172;-90
2020/12/13 01:59:01;;;;;;;6.00;5.50;;;11.00;51.30;;;;;;5014491;28;20172;-90
2020/12/13 02:01:28;;;;;;;5.95;5.45;;;11.00;51.10;;;;;;5013920;28;20179;-90
2020/12/13 02:03:58;;;;;;;6.50;5.90;;;11.10;51.00;;;;;;5014144;28;20239;-90
2020/12/13 02:06:31;;;;;;;5.30;4.80;;;11.00;51.10;;;;;;5014894;28;20183;-90
2020/12/13 02:08:57;;;;;;;6.13;5.53;;;11.10;51.20;;;;;;5013992;28;20205;-89
2020/12/13 02:11:41;;;;;;;6.33;5.50;;;11.00;51.10;;;;;;5014072;28;20180;-89
2020/12/13 02:14:06;;;;;;;6.15;5.57;;;11.20;51.20;;;;;;5013839;28;20233;-89
2020/12/13 02:16:32;;;;;;;6.70;6.10;;;11.10;51.10;;;;;;5013900;28;20172;-89
2020/12/13 02:19:11;;;;;;;7.13;5.77;;;11.00;51.20;;;;;;5013596;28;20211;-90
2020/12/13 02:21:44;;;;;;;6.35;5.38;;;10.80;51.70;;;;;;5013809;28;20218;-90
2020/12/13 02:24:11;;;;;;;7.80;6.45;;;10.80;51.00;;;;;;5014152;28;20234;-90
2020/12/13 02:27:18;;;;;;;9.38;6.43;;;11.10;51.10;;;;;;5014405;28;20199;-90
2020/12/13 02:29:43;;;;;;;6.10;5.40;;;10.90;50.70;;;;;;5014260;28;20275;-90
2020/12/13 02:32:09;;;;;;;6.60;5.70;;;11.10;50.70;;;;;;5014318;28;20560;-90
2020/12/13 02:35:00;;;;;;;6.77;6.17;;;10.90;50.70;;;;;;5013753;28;20239;-90
2020/12/13 02:37:27;;;;;;;5.70;5.20;;;11.00;50.70;;;;;;5013927;28;20171;-90
2020/12/13 02:40:00;;;;;;;5.80;5.30;;;10.60;50.40;;;;;;5016475;28;20175;-89
2020/12/13 02:42:26;;;;;;;6.60;6.00;;;10.90;50.80;;;;;;5017023;28;20171;-90
2020/12/13 02:44:53;;;;;;;7.07;6.35;;;10.70;51.30;;;;;;5017440;28;20188;-90
2020/12/13 02:47:18;;;;;;;6.97;6.30;;;10.70;52.00;;;;;;5017297;28;20215;-90
2020/12/13 02:49:44;;;;;;;6.50;5.90;;;10.70;51.20;;;;;;5017219;28;20226;-90
2020/12/13 02:52:17;;;;;;;7.00;6.30;;;10.80;51.00;;;;;;5017238;28;20198;-90
2020/12/13 02:54:43;;;;;;;5.55;5.15;;;11.00;51.10;;;;;;5017036;28;20680;-90
2020/12/13 02:57:08;;;;;;;5.87;5.40;;;10.80;50.90;;;;;;5017227;28;20171;-90
2020/12/13 03:00:07;;;;;;;6.50;5.90;;;11.10;51.00;;;;;;5017110;28;20207;-90
2020/12/13 03:02:33;;;;;;;5.90;5.40;;;11.10;50.80;;;;;;5017134;28;20199;-90
2020/12/13 03:05:35;;;;;;;5.40;4.90;;;11.00;50.60;;;;;;5017421;28;20194;-90
2020/12/13 03:08:00;;;;;;;5.93;5.32;;;10.80;50.70;;;;;;5017001;28;20179;-90
2020/12/13 03:10:42;;;;;;;6.80;6.00;;;10.80;50.70;;;;;;5017223;28;20290;-90
2020/12/13 03:13:08;;;;;;;5.32;4.93;;;10.60;50.60;;;;;;5017053;28;20175;-90
2020/12/13 03:15:33;;;;;;;5.00;4.60;;;10.60;50.30;;;;;;5016903;28;20214;-90
2020/12/13 03:17:59;;;;;;;5.70;5.20;;;10.80;50.70;;;;;;5017028;28;20230;-89
2020/12/13 03:20:25;;;;;;;6.77;5.57;;;10.80;50.90;;;;;;5017188;28;20175;-90
2020/12/13 03:22:52;;;;;;;6.07;5.57;;;10.80;50.90;;;;;;5017067;28;20175;-90
2020/12/13 03:25:17;;;;;;;6.38;5.78;;;10.70;51.10;;;;;;5016806;28;20180;-90
2020/12/13 03:27:43;;;;;;;5.30;4.90;;;10.50;50.90;;;;;;5017106;28;20198;-90
2020/12/13 03:30:36;;;;;;;6.28;5.78;;;10.80;51.10;;;;;;5017251;28;20172;-90
2020/12/13 03:33:02;;;;;;;5.53;5.13;;;10.70;51.60;;;;;;5017398;28;20180;-90
2020/12/13 03:35:27;;;;;;;5.63;5.07;;;10.50;51.40;;;;;;5019615;28;20199;-95
2020/12/13 03:42:57;;;;;;;5.47;5.00;;;10.80;51.70;;;;;;5017912;28;20219;-90
2020/12/13 03:45:22;;;;;;;6.63;6.03;;;10.70;51.10;;;;;;5000454;28;20233;-93
2020/12/13 03:47:48;;;;;;;5.37;4.97;;;11.00;51.40;;;;;;5001396;28;20175;-93
2020/12/13 03:50:14;;;;;;;5.90;5.10;;;10.70;51.20;;;;;;4999514;28;20208;-93
2020/12/13 03:52:40;;;;;;;5.83;5.17;;;10.70;51.00;;;;;;5000245;28;20176;-93
2020/12/13 03:55:08;;;;;;;6.07;5.57;;;10.50;50.90;;;;;;5000431;28;20203;-92
2020/12/13 03:58:00;;;;;;;6.47;5.80;;;10.70;51.10;;;;;;5000631;28;20649;-92
2020/12/13 04:00:27;;;;;;;11.20;6.90;;;10.70;51.20;;;;;;5000413;28;20628;-94
2020/12/13 04:02:54;;;;;;;6.57;5.97;;;10.60;51.40;;;;;;5000317;28;20203;-93
2020/12/13 04:05:33;;;;;;;4.93;4.55;;;10.70;51.70;;;;;;5000384;28;20180;-93
2020/12/13 04:07:59;;;;;;;5.55;5.05;;;10.70;51.50;;;;;;5000446;28;20544;-93
2020/12/13 04:10:26;;;;;;;6.32;5.82;;;10.60;50.90;;;;;;5000365;28;20692;-93
2020/12/13 04:13:33;;;;;;;5.70;5.20;;;10.70;50.80;;;;;;5000354;28;20191;-93
2020/12/13 04:15:59;;;;;;;5.75;5.25;;;10.70;50.60;;;;;;5016375;28;20187;-93
2020/12/13 04:18:24;;;;;;;5.00;4.60;;;10.60;50.50;;;;;;5000294;28;20176;-93
2020/12/13 04:21:10;;;;;;;5.50;4.97;;;10.70;50.70;;;;;;5000079;28;20645;-93
2020/12/13 04:23:36;;;;;;;4.88;4.40;;;10.70;50.40;;;;;;5000008;28;20183;-93
2020/12/13 04:26:02;;;;;;;5.20;4.70;;;10.70;50.50;;;;;;4999694;28;20549;-93
2020/12/13 04:28:33;;;;;;;5.40;4.80;;;10.90;50.60;;;;;;5017392;28;20164;-93
2020/12/13 04:30:59;;;;;;;5.72;5.22;;;10.70;50.30;;;;;;4999731;28;20175;-93
2020/12/13 04:36:46;;;;;;;5.95;5.45;;;10.90;50.70;;;;;;5016914;28;20256;-92
2020/12/13 04:39:26;;;;;;;4.87;4.40;;;10.90;51.50;;;;;;4999717;28;20195;-93
2020/12/13 04:41:55;;;;;;;4.18;3.78;;;10.90;51.40;;;;;;5008726;28;20276;-90
2020/12/13 04:44:24;;;;;;;5.00;4.60;;;10.80;51.50;;;;;;5019711;28;20226;-89
2020/12/13 04:47:16;;;;;;;5.88;5.38;;;10.70;51.40;;;;;;5018731;28;20209;-91
2020/12/13 04:50:05;;;;;;;9.52;8.55;;;10.60;51.30;;;;;;5019515;28;20187;-93
2020/12/13 04:52:32;;;;;;;8.70;7.85;;;10.60;51.70;;;;;;5035105;28;20184;-94
2020/12/13 04:54:57;;;;;;;8.00;7.28;;;10.60;51.20;;;;;;5018497;28;20658;-93
2020/12/13 04:57:35;;;;;;;8.00;6.40;;;10.90;51.20;;;;;;5016905;28;20215;-91
2020/12/13 05:00:03;;;;;;;7.50;6.80;;;11.00;51.00;;;;;;5015242;28;20266;-90
2020/12/13 05:02:29;;;;;;;5.63;5.13;;;11.00;50.70;;;;;;5014854;28;20203;-91
2020/12/13 05:05:10;;;;;;;6.10;5.60;;;10.90;50.80;;;;;;5015373;28;20183;-90
2020/12/13 05:07:36;;;;;;;5.97;5.55;;;10.90;50.90;;;;;;5014972;28;20195;-90
2020/12/13 05:10:03;;;;;;;5.77;5.17;;;10.60;50.80;;;;;;5015201;28;20210;-90
2020/12/13 05:12:54;;;;;;;8.48;7.68;;;10.80;51.40;;;;;;5015049;28;20182;-90
2020/12/13 05:15:20;;;;;;;6.25;5.63;;;10.70;51.10;;;;;;5014872;28;20203;-90
2020/12/13 05:18:08;;;;;;;5.47;5.00;;;10.70;50.80;;;;;;5014826;28;20179;-91
2020/12/13 05:20:34;;;;;;;4.43;4.13;;;10.80;50.60;;;;;;5014592;28;20255;-90
2020/12/13 05:23:19;;;;;;;4.68;4.15;;;10.80;50.60;;;;;;5014811;28;20226;-90
2020/12/13 05:25:44;;;;;;;4.43;4.03;;;11.00;50.60;;;;;;5014986;28;20172;-90
2020/12/13 05:28:12;;;;;;;4.03;3.73;;;10.90;50.50;;;;;;5014744;28;20663;-90
2020/12/13 05:31:00;;;;;;;3.60;3.30;;;11.00;50.50;;;;;;5015300;28;20182;-90
2020/12/13 05:33:34;;;;;;;5.20;4.80;;;11.00;50.40;;;;;;5014720;28;20255;-90
2020/12/13 05:36:09;;;;;;;4.90;4.40;;;11.00;51.10;;;;;;5016314;28;20182;-90
2020/12/13 05:38:40;;;;;;;4.80;4.40;;;10.50;51.30;;;;;;5015374;28;20646;-90
2020/12/13 05:41:32;;;;;;;5.00;4.60;;;10.70;51.20;;;;;;5012517;28;20199;-90
2020/12/13 05:44:07;;;;;;;4.35;3.95;;;11.10;51.50;;;;;;4979402;28;20185;-91
2020/12/13 05:52:26;;;;;;;4.47;4.07;;;10.70;51.80;;;;;;4995941;28;20175;-90
2020/12/13 05:54:54;;;;;;;3.72;3.42;;;10.70;51.50;;;;;;4978818;28;20239;-90
2020/12/13 05:57:21;;;;;;;4.32;3.92;;;10.60;51.60;;;;;;4978567;28;20165;-90
2020/12/13 05:59:47;;;;;;;4.50;3.70;;;10.50;51.70;;;;;;4978963;28;20176;-90
2020/12/13 06:02:24;;;;;;;4.93;4.38;;;10.80;51.90;;;;;;4976965;28;20204;-90
2020/12/13 06:05:01;;;;;;;4.75;3.70;;;10.80;51.70;;;;;;4977846;28;20627;-90
2020/12/13 06:07:33;;;;;;;3.83;3.50;;;10.70;51.40;;;;;;4977792;28;20657;-90
2020/12/13 06:10:06;;;;;;;4.85;4.25;;;11.00;51.50;;;;;;4977728;28;20176;-90
2020/12/13 06:13:00;;;;;;;3.95;3.65;;;10.70;51.20;;;;;;4978192;28;20180;-90
2020/12/13 06:15:31;;;;;;;4.20;3.83;;;10.90;51.10;;;;;;4978600;28;20613;-90
2020/12/13 06:18:01;;;;;;;4.00;3.60;;;11.00;51.10;;;;;;4977888;28;20173;-90
2020/12/13 06:23:49;;;;;;;3.55;3.25;;;11.00;50.80;;;;;;4995655;28;20172;-90
2020/12/13 06:26:57;;;;;;;4.20;3.80;;;11.00;50.70;;;;;;4977948;28;20169;-90
2020/12/13 06:29:24;;;;;;;3.40;3.10;;;10.90;50.50;;;;;;4978164;28;20218;-90
2020/12/13 06:31:51;;;;;;;3.53;3.30;;;11.00;50.50;;;;;;4977897;28;20263;-90
2020/12/13 06:34:55;;;;;;;3.67;3.38;;;11.00;50.50;;;;;;4980871;28;20662;-90
2020/12/13 06:37:22;;;;;;;5.50;4.50;;;11.00;50.50;;;;;;4977813;28;20172;-93
2020/12/13 06:39:49;;;;;;;4.53;4.13;;;10.90;50.60;;;;;;4978109;28;20634;-92
2020/12/13 06:42:53;;;;;;;4.13;3.80;;;11.00;51.00;;;;;;4991061;28;20219;-90
2020/12/13 06:45:19;;;;;;;5.55;5.05;;;11.00;50.90;;;;;;5031607;28;20267;-94
2020/12/13 06:47:48;;;;;;;7.03;6.33;;;10.90;50.90;;;;;;5028606;28;20195;-94
2020/12/13 06:53:37;;;;;;;4.78;3.97;;;11.30;51.80;;;;;;5027240;28;20255;-96
2020/12/13 06:59:26;;;;;;;4.57;4.18;;;10.00;51.80;;;;;;5031817;28;20155;-94
2020/12/13 07:05:19;;;;;;;3.80;3.50;;;9.90;54.80;;;;;;5034779;28;20159;-94
2020/12/13 07:11:17;;;;;;;2.60;2.40;;;10.10;55.50;;;;;;5027350;28;20175;-95
2020/12/13 07:13:47;;;;;;;2.45;2.25;;;9.90;56.30;;;;;;5026262;28;20179;-93
2020/12/13 07:16:58;;;;;;;4.03;3.60;;;10.60;55.50;;;;;;5006295;28;20179;-94
2020/12/13 07:19:27;;;;;;;3.58;3.28;;;10.70;55.10;;;;;;5027178;28;20681;-92
2020/12/13 07:25:04;;;;;;;7.80;7.10;;;10.60;54.00;;;;;;4985591;28;20227;-93
2020/12/13 07:28:10;;;;;;;6.80;6.10;;;10.70;53.70;;;;;;5003334;28;20183;-92
2020/12/13 07:30:48;;;;;;;6.57;5.97;;;10.70;52.80;;;;;;5016998;28;20611;-93
2020/12/13 07:33:14;;;;;;;6.72;6.15;;;10.80;53.20;;;;;;5000307;28;20191;-93
2020/12/13 07:35:44;;;;;;;6.90;6.30;;;10.90;53.10;;;;;;5001835;28;20203;-94
2020/12/13 07:38:50;;;;;;;5.32;4.90;;;11.00;52.60;;;;;;5002346;28;20207;-94
2020/12/13 07:41:20;;;;;;;9.23;8.27;;;11.10;52.20;;;;;;5018160;28;20266;-94
2020/12/13 07:43:52;;;;;;;9.60;8.60;;;11.20;51.80;;;;;;5001848;28;20406;-93
2020/12/13 07:46:40;;;;;;;6.30;5.80;;;11.00;52.00;;;;;;5020272;28;20395;-93
2020/12/13 07:49:13;;;;;;;6.20;5.60;;;11.10;51.70;;;;;;5001978;28;20670;-94
2020/12/13 07:51:41;;;;;;;4.80;4.30;;;11.00;52.20;;;;;;5018591;28;20517;-93
2020/12/13 07:58:15;;;;;;;4.40;4.00;;;11.00;52.00;;;;;;5019850;28;20190;-94
2020/12/13 08:00:41;;;;;;;4.15;3.75;;;10.90;51.70;;;;;;5018791;28;20178;-93
2020/12/13 08:03:07;;;;;;;4.90;4.40;;;11.00;51.70;;;;;;5002250;28;20176;-94
2020/12/13 08:12:19;;;;;;;7.90;7.20;;;11.40;51.50;;;;;;5031200;28;20271;-94
2020/12/13 08:18:13;;;;;;;4.25;3.85;;;11.60;51.90;;;;;;5030775;28;20151;-94
2020/12/13 08:24:06;;;;;;;4.25;3.50;;;10.90;52.40;;;;;;5034717;28;20163;-94
2020/12/13 08:30:00;;;;;;;4.55;3.90;;;11.10;51.90;;;;;;5032220;28;20453;-93
2020/12/13 08:32:55;;;;;;;4.40;4.00;;;10.50;52.70;;;;;;5008185;28;20168;-91
2020/12/13 08:35:23;;;;;;;4.40;4.10;;;10.80;52.30;;;;;;5009763;28;20214;-95
2020/12/13 08:38:25;;;;;;;5.40;4.35;;;10.40;52.50;;;;;;5008359;28;20218;-94
2020/12/13 08:40:51;;;;;;;4.15;3.75;;;11.40;53.20;;;;;;5018216;28;20171;-94
2020/12/13 08:47:43;;;;;;;4.75;4.35;;;10.90;51.40;;;;;;5021239;28;20378;-94
2020/12/13 09:00:12;;;;;;;4.10;3.80;;;10.80;51.50;;;;;;4958048;28;20172;-94
2020/12/13 09:03:33;;;;;;;4.38;3.97;;;10.80;52.40;;;;;;4941700;29;20178;-94
2020/12/13 09:05:59;;;;;;;3.58;3.30;;;10.60;52.20;;;;;;4942458;29;20818;-94
2020/12/13 09:08:27;;;;;;;5.13;4.73;;;10.50;52.60;;;;;;4943866;29;20185;-93
2020/12/13 09:14:31;;;;;;;3.53;3.30;;;10.70;52.20;;;;;;4958330;29;20204;-93
2020/12/13 09:17:00;;;;;;;4.20;3.60;;;10.60;52.60;;;;;;4942282;29;20182;-93
2020/12/13 09:19:26;;;;;;;3.88;3.55;;;10.80;51.80;;;;;;4941999;29;20421;-92
2020/12/13 09:22:00;;;;;;;4.40;4.00;;;11.10;51.30;;;;;;4941694;29;20265;-93
2020/12/13 09:27:47;;;;;;;6.60;5.17;;;11.30;50.20;;;;;;4993406;28;20418;-94
2020/12/13 09:33:35;;;;;;;3.77;3.47;;;11.40;49.90;;;;;;5016847;28;20163;-93
2020/12/13 09:39:22;;;;;;;3.92;3.55;;;11.40;50.60;;;;;;5019235;28;20159;-94
2020/12/13 09:48:39;;;;;;;4.90;3.30;;;12.10;48.20;;;;;;5020824;28;20162;-96
2020/12/13 09:54:30;;;;;;;3.83;3.07;;;12.70;47.80;;;;;;5022788;28;20472;-95
2020/12/13 10:00:18;;;;;;;2.67;2.47;;;12.90;46.50;;;;;;5020395;28;20445;-96
2020/12/13 10:06:26;;;;;;;2.70;2.50;;;13.20;45.00;;;;;;5022090;28;20163;-96
2020/12/13 10:12:13;;;;;;;4.13;2.80;;;13.00;44.60;;;;;;5002262;28;20753;-95
2020/12/13 10:18:00;;;;;;;2.80;2.60;;;12.50;45.20;;;;;;5002246;28;20176;-94
2020/12/13 10:45:02;;;;;;;3.20;2.90;;;13.20;43.90;;;;;;5030022;28;20967;-94
2020/12/13 10:48:06;;;;;;;3.53;3.07;;;13.10;43.50;;;;;;5019006;28;20186;-91
2020/12/13 10:50:37;;;;;;;4.70;3.27;;;13.30;44.00;;;;;;5019100;28;20410;-91
2020/12/13 10:53:11;;;;;;;4.77;4.37;;;12.90;44.40;;;;;;5038446;28;20762;-90
2020/12/13 10:55:37;;;;;;;3.27;3.07;;;13.10;45.00;;;;;;5025469;28;20441;-95
2020/12/13 10:58:04;;;;;;;2.93;2.73;;;13.10;44.40;;;;;;5030785;28;20509;-95
2020/12/13 11:03:53;;;;;;;3.30;3.00;;;13.20;44.30;;;;;;5050449;28;20926;-95
2020/12/13 11:06:35;;;;;;;4.07;3.77;;;13.30;44.30;;;;;;5033466;28;20457;-96
2020/12/13 11:09:04;;;;;;;4.07;3.77;;;13.30;43.60;;;;;;5037722;28;20410;-87
2020/12/13 11:14:52;;;;;;;3.33;2.97;;;13.50;42.30;;;;;;5048845;28;20437;-95
2020/12/13 11:24:03;;;;;;;3.93;3.53;;;13.90;42.30;;;;;;5052247;28;20373;-96
2020/12/13 11:29:51;;;;;;;3.57;3.07;;;13.40;41.90;;;;;;5045348;28;20378;-95
2020/12/13 11:35:42;;;;;;;6.60;3.53;;;14.00;42.50;;;;;;5056751;28;20206;-95
2020/12/13 11:41:31;;;;;;;3.28;2.90;;;13.50;42.00;;;;;;5051895;28;20451;-94
2020/12/13 11:51:21;;;;;;;3.40;3.10;;;13.60;42.70;;;;;;5043693;28;20369;-96
2020/12/13 11:57:12;;;;;;;3.30;3.00;;;12.70;43.00;;;;;;5046606;28;20414;-96
2020/12/13 12:03:04;;;;;;;2.10;1.60;;;12.50;43.70;;;;;;5043147;28;20366;-95
2020/12/13 12:08:55;;;;;;;2.30;2.10;;;12.00;45.90;;;;;;5045531;28;20369;-96
2020/12/13 12:14:46;;;;;;;2.40;2.20;;;12.00;45.70;;;;;;5045079;28;20476;-96
2020/12/13 12:20:35;;;;;;;2.13;1.90;;;12.30;46.30;;;;;;5042509;28;20397;-95
2020/12/13 12:26:37;;;;;;;2.57;2.37;;;12.00;46.40;;;;;;5046030;28;20405;-96
2020/12/13 12:29:08;;;;;;;2.80;2.60;;;11.90;45.70;;;;;;5043301;28;20406;-95
2020/12/13 12:31:37;;;;;;;2.70;2.50;;;12.00;46.40;;;;;;5039394;28;20417;-96
2020/12/13 12:34:16;;;;;;;2.70;2.43;;;12.10;46.00;;;;;;5045267;28;20490;-96
2020/12/13 12:36:43;;;;;;;3.60;2.77;;;12.10;45.70;;;;;;5039661;28;20406;-96
2020/12/13 12:39:12;;;;;;;2.37;2.10;;;12.20;45.40;;;;;;5043486;28;20477;-95
2020/12/13 12:45:02;;;;;;;2.93;2.30;;;12.80;44.50;;;;;;5047193;28;20377;-96
2020/12/13 12:47:27;;;;;;;2.40;2.20;;;12.50;44.20;;;;;;5032564;28;20468;-92
2020/12/13 12:49:54;;;;;;;1.87;1.77;;;12.60;44.40;;;;;;5032330;28;20528;-91
2020/12/13 12:52:20;;;;;;;3.27;2.30;;;12.80;44.80;;;;;;5000689;28;20223;-92
2020/12/13 12:54:47;;;;;;;2.80;2.50;;;12.60;44.00;;;;;;5015099;28;20812;-91
2020/12/13 12:57:13;;;;;;;2.80;2.60;;;12.50;44.20;;;;;;5014173;28;20188;-90
2020/12/13 13:02:33;;;;;;;2.30;1.98;;;12.40;45.10;;;;;;5008642;28;20186;-93
2020/12/13 13:05:07;;;;;;;2.93;2.50;;;12.50;45.40;;;;;;5015017;28;20222;-92
2020/12/13 13:07:42;;;;;;;2.35;2.05;;;12.50;45.10;;;;;;5015808;28;20423;-91
2020/12/13 13:10:16;;;;;;;2.90;2.07;;;12.00;45.00;;;;;;5001525;28;20190;-91
2020/12/13 13:12:42;;;;;;;3.50;2.20;;;12.40;45.90;;;;;;5019321;28;20465;-90
2020/12/13 13:15:38;;;;;;;2.10;1.90;;;12.60;45.70;;;;;;5018024;28;20477;-91
2020/12/13 13:17:59;;;;;;;2.00;1.90;;;12.50;45.20;;;;;;5035750;28;20454;-91
2020/12/13 13:20:25;;;;;;;2.07;1.77;;;12.70;44.80;;;;;;5014415;28;20431;-92
2020/12/13 13:22:52;;;;;;;2.40;2.20;;;12.50;44.90;;;;;;5014953;28;20410;-92
2020/12/13 13:25:18;;;;;;;3.10;2.40;;;12.80;45.60;;;;;;5018757;28;20940;-91
2020/12/13 13:27:44;;;;;;;2.20;2.00;;;12.60;45.80;;;;;;5025988;28;20406;-91
2020/12/13 13:30:13;;;;;;;2.63;2.43;;;12.50;46.00;;;;;;5021009;28;20424;-92
2020/12/13 13:32:39;;;;;;;2.50;2.30;;;12.50;45.90;;;;;;5015926;28;20168;-91
2020/12/13 13:35:06;;;;;;;2.80;2.60;;;12.00;46.40;;;;;;5014961;28;20538;-91
2020/12/13 13:37:32;;;;;;;2.70;2.25;;;12.00;46.60;;;;;;5024316;28;20548;-91
2020/12/13 13:40:00;;;;;;;3.53;2.73;;;12.10;46.60;;;;;;5029469;28;20171;-90
2020/12/13 13:42:31;;;;;;;2.57;2.37;;;12.10;46.30;;;;;;5015107;28;20398;-90
2020/12/13 13:50:15;;;;;;;3.07;2.67;;;12.60;45.30;;;;;;5035684;28;20418;-92
2020/12/13 13:52:41;;;;;;;2.95;2.75;;;12.30;45.70;;;;;;5015524;28;20957;-91
2020/12/13 13:55:55;;;;;;;2.17;1.97;;;12.10;46.40;;;;;;5016531;28;20203;-91
2020/12/13 13:57:52;;;;;;;3.33;2.67;;;11.70;47.20;;;;;;5022711;28;20421;-89
2020/12/13 14:00:18;;;;;;;3.43;3.00;;;11.90;47.20;;;;;;5018134;28;20189;-90
2020/12/13 14:02:44;;;;;;;3.50;3.10;;;12.20;47.30;;;;;;5016055;28;20175;-90
2020/12/13 14:05:12;;;;;;;3.13;2.23;;;12.10;46.90;;;;;;5017246;28;20457;-91
2020/12/13 14:10:13;;;;;;;4.43;3.83;;;11.90;46.50;;;;;;5035905;28;20441;-91
2020/12/13 14:12:39;;;;;;;4.10;3.23;;;12.10;46.60;;;;;;5014715;28;20179;-90
2020/12/13 14:15:04;;;;;;;5.97;2.83;;;12.40;46.50;;;;;;5015219;28;20454;-91
2020/12/13 14:17:30;;;;;;;2.80;2.60;;;12.30;45.90;;;;;;5024005;28;20171;-91
2020/12/13 14:20:07;;;;;;;3.40;3.10;;;12.50;45.40;;;;;;5021374;28;20904;-90
2020/12/13 14:22:35;;;;;;;2.80;2.60;;;12.90;45.70;;;;;;5019183;28;20193;-90
2020/12/13 14:25:02;;;;;;;3.30;3.00;;;12.50;45.20;;;;;;5019556;28;20413;-89
2020/12/13 14:27:28;;;;;;;3.60;2.67;;;12.50;45.00;;;;;;5022774;28;20425;-90
2020/12/13 14:30:06;;;;;;;3.17;2.90;;;12.90;45.30;;;;;;5016495;28;20422;-91
2020/12/13 14:32:32;;;;;;;3.13;2.63;;;12.80;44.80;;;;;;5017807;28;20436;-90
2020/12/13 14:34:58;;;;;;;3.77;3.47;;;12.90;44.90;;;;;;5017644;28;20485;-89
2020/12/13 14:37:23;;;;;;;4.70;3.77;;;12.90;44.60;;;;;;5020770;28;20410;-89
2020/12/13 14:39:50;;;;;;;3.30;3.00;;;12.70;44.70;;;;;;5021568;28;20418;-91
2020/12/13 14:42:16;;;;;;;3.83;3.43;;;12.50;44.50;;;;;;5021410;28;20409;-91
2020/12/13 14:44:43;;;;;;;3.53;2.90;;;12.60;45.80;;;;;;5028590;28;20436;-90
2020/12/13 14:47:09;;;;;;;2.57;2.37;;;12.30;44.90;;;;;;5027263;28;20484;-91
2020/12/13 14:49:35;;;;;;;2.60;2.40;;;12.40;45.30;;;;;;5018041;28;20403;-92
2020/12/13 14:52:01;;;;;;;4.85;3.53;;;12.30;45.80;;;;;;5018223;28;20932;-89
2020/12/13 14:54:27;;;;;;;3.50;2.95;;;11.80;45.80;;;;;;5027354;28;20206;-89
2020/12/13 14:56:53;;;;;;;4.50;4.10;;;11.30;47.40;;;;;;5030766;28;20178;-91
2020/12/13 14:59:19;;;;;;;7.37;2.87;;;11.00;47.90;;;;;;5030828;28;20410;-91
2020/12/13 15:01:45;;;;;;;3.37;3.07;;;11.10;48.30;;;;;;5025397;28;20749;-91
2020/12/13 15:04:11;;;;;;;5.53;2.78;;;10.90;48.60;;;;;;5021009;28;20207;-91
2020/12/13 15:06:37;;;;;;;2.67;2.00;;;10.80;49.30;;;;;;5027307;28;20177;-91
2020/12/13 15:09:03;;;;;;;3.80;2.33;;;10.70;49.70;;;;;;5019816;28;20414;-91
2020/12/13 15:11:31;;;;;;;2.80;2.60;;;11.00;49.90;;;;;;5024891;28;20178;-91
2020/12/13 15:14:19;;;;;;;3.63;2.80;;;10.70;49.60;;;;;;5021095;28;20433;-91
2020/12/13 15:19:30;;;;;;;3.80;3.25;;;11.40;48.10;;;;;;5038319;28;20165;-88
2020/12/13 15:21:57;;;;;;;5.60;3.97;;;11.60;47.70;;;;;;5016411;28;20278;-87
2020/12/13 15:24:24;;;;;;;3.60;3.30;;;11.70;47.10;;;;;;5016779;28;20445;-88
2020/12/13 15:26:50;;;;;;;2.90;2.63;;;11.80;46.50;;;;;;5016681;28;20426;-89
2020/12/13 15:29:22;;;;;;;3.53;2.50;;;11.80;45.80;;;;;;5019628;28;20812;-88
2020/12/13 15:31:49;;;;;;;3.00;2.73;;;12.00;45.50;;;;;;5016687;28;20423;-88
2020/12/13 15:34:15;;;;;;;2.10;1.90;;;12.10;45.20;;;;;;5018784;28;20529;-89
2020/12/13 15:36:41;;;;;;;2.40;2.20;;;12.20;44.70;;;;;;5016857;28;20167;-90
2020/12/13 15:39:07;;;;;;;3.00;2.70;;;12.20;44.70;;;;;;5017163;28;20414;-89
2020/12/13 15:41:33;;;;;;;2.10;1.90;;;12.60;44.90;;;;;;5016661;28;20168;-89
2020/12/13 15:43:59;;;;;;;2.67;2.47;;;12.30;44.50;;;;;;5016821;28;20498;-89
2020/12/13 15:46:24;;;;;;;3.20;2.90;;;12.40;44.30;;;;;;5016536;28;20418;-90
2020/12/13 15:48:50;;;;;;;3.90;3.10;;;12.40;44.00;;;;;;5022952;28;20246;-90
2020/12/13 15:51:41;;;;;;;4.73;2.90;;;12.40;44.60;;;;;;5033677;28;20434;-93
2020/12/13 15:54:07;;;;;;;6.17;4.87;;;12.40;43.80;;;;;;5025355;28;20183;-95
2020/12/13 15:59:23;;;;;;;3.17;2.00;;;12.60;44.20;;;;;;4984496;26;20285;-90
2020/12/13 16:01:48;;;;;;;2.03;1.77;;;12.40;44.60;;;;;;4983489;28;20432;-88
2020/12/13 16:04:14;;;;;;;12.43;9.70;;;12.40;44.20;;;;;;4982332;28;20597;-90
2020/12/13 16:06:41;;;;;;;5.90;4.37;;;12.30;44.30;;;;;;4982524;28;20250;-92
2020/12/13 16:09:06;;;;;;;4.00;3.70;;;12.50;44.40;;;;;;4973860;28;20446;-92
2020/12/13 16:11:35;;;;;;;3.40;3.10;;;12.40;44.40;;;;;;4978006;28;20418;-92
2020/12/13 16:14:05;;;;;;;5.63;4.00;;;12.40;44.10;;;;;;4983901;28;20602;-92
2020/12/13 16:16:35;;;;;;;4.93;3.53;;;12.20;44.00;;;;;;4977941;28;20431;-92
2020/12/13 16:19:01;;;;;;;7.70;6.90;;;12.00;44.20;;;;;;4966094;28;20423;-92
2020/12/13 16:21:28;;;;;;;9.07;8.33;;;12.00;44.50;;;;;;4966167;28;20421;-93
2020/12/13 16:23:55;;;;;;;5.67;4.50;;;12.00;44.10;;;;;;4977743;28;20426;-92
2020/12/13 16:26:21;;;;;;;5.00;4.60;;;11.90;44.10;;;;;;4982969;28;20487;-92
2020/12/13 16:28:47;;;;;;;5.67;3.87;;;12.00;44.70;;;;;;4975590;28;20443;-93
2020/12/13 16:31:16;;;;;;;5.53;3.97;;;12.10;45.10;;;;;;4975392;28;20427;-92
2020/12/13 16:33:42;;;;;;;6.40;5.90;;;12.10;44.70;;;;;;4971231;28;20432;-92